Time;durP1;ratioP1;P1;durP2;ratioP2;P2;SDS_P1;SDS_P2;PMS_P1;PMS_P2;Temp;Humidity;BMP_temperature;BMP_pressure;BME280_temperature;BME280_humidity;BME280_pressure;Samples;Min_cycle;Max_cycle;Signal;HPM_P1;HPM_P2
2023/08/01 00:00:14;;;;;;;5.07;3.13;;;19.90;99.90;;;;;;4996368;28;20026;-76
2023/08/01 00:02:42;;;;;;;3.92;2.67;;;19.90;99.90;;;;;;4996356;28;20034;-75
2023/08/01 00:05:08;;;;;;;4.38;2.50;;;19.90;99.90;;;;;;4978839;28;20557;-76
2023/08/01 00:07:34;;;;;;;4.57;2.58;;;19.90;99.90;;;;;;4985095;28;20031;-76
2023/08/01 00:09:59;;;;;;;6.60;2.90;;;19.90;99.90;;;;;;4996456;28;20105;-76
2023/08/01 00:12:27;;;;;;;5.03;2.50;;;19.90;99.90;;;;;;5002022;28;20018;-75
2023/08/01 00:14:52;;;;;;;4.47;2.60;;;19.90;99.90;;;;;;4987618;28;20337;-76
2023/08/01 00:17:18;;;;;;;6.40;3.13;;;19.90;99.90;;;;;;4983396;28;20068;-76
2023/08/01 00:19:43;;;;;;;5.60;2.35;;;19.90;99.90;;;;;;4997951;28;20034;-76
2023/08/01 00:22:09;;;;;;;4.30;2.70;;;19.90;99.90;;;;;;5015523;28;20025;-76
2023/08/01 00:24:35;;;;;;;4.78;2.50;;;19.90;99.90;;;;;;4993879;28;20038;-77
2023/08/01 00:27:01;;;;;;;4.40;2.38;;;19.90;99.90;;;;;;4995510;28;20029;-76
2023/08/01 00:29:27;;;;;;;4.70;2.65;;;20.00;99.90;;;;;;4971516;28;20034;-77
2023/08/01 00:31:52;;;;;;;4.05;2.35;;;20.00;99.90;;;;;;4989651;28;20044;-75
2023/08/01 00:34:18;;;;;;;4.28;2.60;;;20.10;99.90;;;;;;4973026;28;20031;-76
2023/08/01 00:36:43;;;;;;;5.38;2.95;;;20.10;99.90;;;;;;4995467;28;20458;-76
2023/08/01 00:39:09;;;;;;;7.10;2.83;;;20.20;99.90;;;;;;4995712;28;20027;-76
2023/08/01 00:41:35;;;;;;;4.80;2.40;;;20.20;99.90;;;;;;4995737;28;20027;-76
2023/08/01 00:44:00;;;;;;;4.53;2.47;;;20.30;99.90;;;;;;4995711;28;20439;-76
2023/08/01 00:46:26;;;;;;;4.72;2.55;;;20.30;99.90;;;;;;4972942;28;20030;-76
2023/08/01 00:48:53;;;;;;;4.60;2.55;;;20.40;99.90;;;;;;4993795;28;20064;-75
2023/08/01 00:51:19;;;;;;;6.38;2.47;;;20.40;99.90;;;;;;4987072;28;20023;-76
2023/08/01 00:53:46;;;;;;;4.47;2.60;;;20.50;99.90;;;;;;4992031;28;20392;-76
2023/08/01 00:56:11;;;;;;;5.90;2.80;;;20.50;99.90;;;;;;4995427;28;20018;-76
2023/08/01 00:58:37;;;;;;;4.43;2.05;;;20.50;99.90;;;;;;4995548;28;20034;-76
2023/08/01 01:01:03;;;;;;;5.30;2.38;;;20.60;99.90;;;;;;4995286;28;20069;-76
2023/08/01 01:03:29;;;;;;;5.40;2.65;;;20.70;99.90;;;;;;4995309;28;20069;-76
2023/08/01 01:06:24;;;;;;;4.72;2.40;;;20.70;99.90;;;;;;4981894;28;20030;-77
2023/08/01 01:08:49;;;;;;;;;;;20.70;99.90;;;;;;4976097;28;20031;-76
2023/08/01 01:11:15;;;;;;;6.07;2.15;;;20.80;99.90;;;;;;4976005;28;19906;-76
2023/08/01 01:13:41;;;;;;;5.10;3.13;;;20.80;99.90;;;;;;4981849;28;20136;-77
2023/08/01 01:16:06;;;;;;;4.60;2.63;;;20.80;99.90;;;;;;4967697;28;20681;-77
2023/08/01 01:18:32;;;;;;;3.00;2.10;;;20.80;99.90;;;;;;4983469;28;20035;-77
2023/08/01 01:20:57;;;;;;;5.63;2.50;;;20.80;99.90;;;;;;4975108;28;20113;-77
2023/08/01 01:23:25;;;;;;;3.75;2.42;;;20.70;99.90;;;;;;4971516;28;20030;-77
2023/08/01 01:25:52;;;;;;;5.75;2.72;;;20.70;99.90;;;;;;4990196;28;20088;-77
2023/08/01 01:28:19;;;;;;;4.65;2.83;;;20.60;99.90;;;;;;4990101;28;20497;-77
2023/08/01 01:30:46;;;;;;;4.55;2.33;;;20.60;99.90;;;;;;4972673;28;20026;-76
2023/08/01 01:33:12;;;;;;;4.68;2.40;;;20.60;99.90;;;;;;4989229;28;20085;-76
2023/08/01 01:35:38;;;;;;;3.97;2.53;;;20.50;99.90;;;;;;4972030;28;20134;-76
2023/08/01 01:38:04;;;;;;;6.15;3.00;;;20.50;99.90;;;;;;4993232;28;20101;-76
2023/08/01 01:40:31;;;;;;;6.50;2.28;;;20.50;99.90;;;;;;4993417;28;20026;-75
2023/08/01 01:42:57;;;;;;;4.18;2.75;;;20.50;99.90;;;;;;4990548;28;20068;-76
2023/08/01 01:45:22;;;;;;;3.50;2.47;;;20.50;99.90;;;;;;4985546;28;20149;-77
2023/08/01 01:47:48;;;;;;;5.18;2.50;;;20.50;99.90;;;;;;4974320;28;20034;-76
2023/08/01 01:50:14;;;;;;;6.60;2.47;;;20.40;99.90;;;;;;4990485;28;20404;-76
2023/08/01 01:52:39;;;;;;;5.35;2.30;;;20.40;99.90;;;;;;4987446;28;20390;-76
2023/08/01 01:55:05;;;;;;;4.88;2.38;;;20.40;99.90;;;;;;4988948;28;20349;-76
2023/08/01 01:57:31;;;;;;;5.20;2.40;;;20.30;99.90;;;;;;4988768;28;20046;-76
2023/08/01 01:59:56;;;;;;;6.28;2.25;;;20.20;99.90;;;;;;4974888;28;20026;-77
2023/08/01 02:02:22;;;;;;;5.13;2.83;;;20.20;99.90;;;;;;4974977;28;20117;-76
2023/08/01 02:04:50;;;;;;;6.22;2.75;;;20.10;99.90;;;;;;4983553;28;20046;-77
2023/08/01 02:07:15;;;;;;;5.80;2.30;;;20.10;99.90;;;;;;4984885;28;20723;-76
2023/08/01 02:09:41;;;;;;;5.00;2.70;;;20.00;99.90;;;;;;4971789;28;20026;-75
2023/08/01 02:12:09;;;;;;;4.93;2.47;;;20.00;99.90;;;;;;4976373;28;20034;-77
2023/08/01 02:14:36;;;;;;;3.75;2.25;;;20.00;99.90;;;;;;4972778;28;20250;-78
2023/08/01 02:17:02;;;;;;;3.67;2.30;;;20.00;99.90;;;;;;4990325;28;20433;-77
2023/08/01 02:19:27;;;;;;;3.85;2.40;;;20.00;99.90;;;;;;4990724;28;20053;-76
2023/08/01 02:21:54;;;;;;;3.58;2.33;;;20.00;99.90;;;;;;4987189;28;20478;-76
2023/08/01 02:24:19;;;;;;;6.93;2.63;;;20.00;99.90;;;;;;4970992;28;20480;-76
2023/08/01 02:26:45;;;;;;;5.07;2.50;;;20.00;99.90;;;;;;4990548;28;20018;-77
2023/08/01 02:29:10;;;;;;;6.28;2.38;;;20.00;99.90;;;;;;4992607;28;20030;-78
2023/08/01 02:31:36;;;;;;;12.07;2.60;;;20.00;99.90;;;;;;4978153;28;20041;-77
2023/08/01 02:34:02;;;;;;;6.47;2.38;;;20.10;99.90;;;;;;4993534;28;20029;-78
2023/08/01 02:36:27;;;;;;;5.38;2.83;;;20.10;99.90;;;;;;4990437;28;20420;-77
2023/08/01 02:38:53;;;;;;;4.80;2.33;;;20.10;99.90;;;;;;4988820;28;20382;-78
2023/08/01 02:41:19;;;;;;;6.97;2.50;;;20.10;99.90;;;;;;4991842;28;20018;-78
2023/08/01 02:43:44;;;;;;;5.60;2.63;;;20.10;99.90;;;;;;4988720;28;20441;-78
2023/08/01 02:46:10;;;;;;;5.78;3.28;;;20.10;99.90;;;;;;4992831;28;20025;-77
2023/08/01 02:48:35;;;;;;;5.88;2.78;;;20.10;99.90;;;;;;5012484;23;20042;-83
2023/08/01 02:51:02;;;;;;;4.93;2.33;;;20.10;99.90;;;;;;4995487;28;20104;-83
2023/08/01 02:53:27;;;;;;;6.68;2.60;;;20.10;99.90;;;;;;5000710;28;20063;-83
2023/08/01 02:55:53;;;;;;;4.50;2.60;;;20.10;99.90;;;;;;4993471;28;20027;-83
2023/08/01 02:58:19;;;;;;;5.18;2.55;;;20.10;99.90;;;;;;4996204;28;20073;-83
2023/08/01 03:00:44;;;;;;;3.80;2.50;;;20.10;99.90;;;;;;4999434;28;20109;-83
2023/08/01 03:03:10;;;;;;;5.90;3.28;;;20.10;99.90;;;;;;4980687;28;20041;-84
2023/08/01 03:05:37;;;;;;;7.13;2.55;;;20.10;99.90;;;;;;4995677;28;20038;-83
2023/08/01 03:08:03;;;;;;;3.63;2.47;;;20.10;99.90;;;;;;4999257;28;20083;-82
2023/08/01 03:10:29;;;;;;;6.18;3.00;;;20.10;99.90;;;;;;4985470;28;20045;-83
2023/08/01 03:12:55;;;;;;;4.53;2.45;;;20.10;99.90;;;;;;4981195;28;20022;-83
2023/08/01 03:15:20;;;;;;;6.00;2.65;;;20.10;99.90;;;;;;4995284;28;20434;-84
2023/08/01 03:17:46;;;;;;;6.97;2.67;;;20.20;99.90;;;;;;4994602;28;20064;-83
2023/08/01 03:20:12;;;;;;;3.75;2.47;;;20.20;99.90;;;;;;4981931;28;20491;-83
2023/08/01 03:22:41;;;;;;;5.45;2.30;;;20.20;99.90;;;;;;4977822;28;20553;-83
2023/08/01 03:25:07;;;;;;;5.13;2.50;;;20.10;99.90;;;;;;4978595;28;20050;-83
2023/08/01 03:27:36;;;;;;;7.10;2.55;;;20.10;99.90;;;;;;4982430;28;20030;-85
2023/08/01 03:30:04;;;;;;;5.15;2.33;;;20.20;99.90;;;;;;4980647;28;20491;-84
2023/08/01 03:32:30;;;;;;;7.78;2.70;;;20.10;99.90;;;;;;4981470;28;20018;-84
2023/08/01 03:34:55;;;;;;;5.13;2.63;;;20.20;99.90;;;;;;4995378;28;20030;-84
2023/08/01 03:37:21;;;;;;;3.95;2.60;;;20.20;99.90;;;;;;4995896;28;20034;-84
2023/08/01 03:39:46;;;;;;;5.47;2.70;;;20.10;99.90;;;;;;4999986;28;20030;-84
2023/08/01 03:42:12;;;;;;;5.85;2.67;;;20.20;99.90;;;;;;4998473;28;20584;-84
2023/08/01 03:44:38;;;;;;;8.23;2.70;;;20.20;99.90;;;;;;4991509;28;20038;-85
2023/08/01 03:47:03;;;;;;;3.75;2.20;;;20.20;99.90;;;;;;4995676;28;20031;-85
2023/08/01 03:49:29;;;;;;;5.60;2.60;;;20.10;99.90;;;;;;5000226;28;20038;-84
2023/08/01 03:51:55;;;;;;;6.10;2.60;;;20.20;99.90;;;;;;4976065;28;20026;-85
2023/08/01 03:54:20;;;;;;;3.10;2.40;;;20.20;99.90;;;;;;4987069;28;20495;-85
2023/08/01 03:56:46;;;;;;;5.65;2.40;;;20.10;99.90;;;;;;4993043;28;20479;-84
2023/08/01 03:59:13;;;;;;;5.78;2.40;;;20.10;99.90;;;;;;4996414;28;20062;-84
2023/08/01 04:01:38;;;;;;;3.90;2.13;;;20.10;99.90;;;;;;4984946;28;20026;-84
2023/08/01 04:04:04;;;;;;;6.30;2.83;;;20.10;99.90;;;;;;4978431;28;20535;-84
2023/08/01 04:06:30;;;;;;;5.85;2.47;;;20.10;99.90;;;;;;4989636;28;20031;-84
2023/08/01 04:08:56;;;;;;;6.53;2.85;;;20.10;99.90;;;;;;4980724;28;20034;-84
2023/08/01 04:11:22;;;;;;;4.63;2.72;;;20.10;99.90;;;;;;4973976;28;20024;-85
2023/08/01 04:13:48;;;;;;;7.53;3.22;;;20.10;99.90;;;;;;4984480;28;20090;-84
2023/08/01 04:16:13;;;;;;;4.88;2.67;;;20.10;99.90;;;;;;4990735;28;20100;-84
2023/08/01 04:18:39;;;;;;;5.28;2.78;;;20.10;99.90;;;;;;4996127;28;20030;-84
2023/08/01 04:21:06;;;;;;;5.88;2.33;;;20.10;99.90;;;;;;4977446;28;20026;-84
2023/08/01 04:23:32;;;;;;;4.28;2.30;;;20.10;99.90;;;;;;4981068;28;20173;-84
2023/08/01 04:26:00;;;;;;;5.32;2.60;;;20.10;99.90;;;;;;4995675;28;20687;-84
2023/08/01 04:28:49;;;;;;;5.13;2.25;;;20.00;99.90;;;;;;5000114;28;20470;-83
2023/08/01 04:31:15;;;;;;;8.40;2.92;;;20.10;99.90;;;;;;4996750;28;20030;-84
2023/08/01 04:33:40;;;;;;;3.60;2.22;;;20.10;99.90;;;;;;4994965;28;20391;-84
2023/08/01 04:36:06;;;;;;;7.97;2.80;;;20.00;99.90;;;;;;4983798;28;20037;-83
2023/08/01 04:38:32;;;;;;;4.07;2.97;;;20.00;99.90;;;;;;4996102;28;20232;-83
2023/08/01 04:40:57;;;;;;;5.28;2.42;;;20.00;99.90;;;;;;4998629;28;20033;-83
2023/08/01 04:43:23;;;;;;;4.45;2.42;;;20.00;99.90;;;;;;4978403;28;20058;-83
2023/08/01 04:45:48;;;;;;;4.20;2.45;;;20.00;99.90;;;;;;4995149;28;20045;-83
2023/08/01 04:48:14;;;;;;;5.47;2.72;;;20.00;99.90;;;;;;4981380;28;20108;-84
2023/08/01 04:50:39;;;;;;;4.78;2.63;;;20.00;99.90;;;;;;4976165;28;20026;-84
2023/08/01 04:53:06;;;;;;;6.80;3.00;;;20.00;99.90;;;;;;4986951;28;20172;-85
2023/08/01 04:55:31;;;;;;;4.25;2.72;;;20.00;99.90;;;;;;4992554;28;20379;-84
2023/08/01 04:57:57;;;;;;;4.47;2.92;;;20.00;99.90;;;;;;4981378;28;20030;-84
2023/08/01 05:00:23;;;;;;;4.78;2.67;;;20.00;99.90;;;;;;4987285;28;20577;-84
2023/08/01 05:02:49;;;;;;;5.43;2.75;;;20.00;99.90;;;;;;4991079;28;20042;-84
2023/08/01 05:05:15;;;;;;;6.63;3.08;;;20.00;99.90;;;;;;4980095;28;20471;-85
2023/08/01 05:07:41;;;;;;;6.03;3.13;;;20.00;99.90;;;;;;4978747;28;20042;-83
2023/08/01 05:10:07;;;;;;;7.97;3.20;;;20.00;99.90;;;;;;4990355;28;20027;-83
2023/08/01 05:12:33;;;;;;;10.88;3.40;;;20.20;99.90;;;;;;4988609;28;20110;-83
2023/08/01 05:14:58;;;;;;;6.32;2.97;;;20.30;99.90;;;;;;4993991;28;20036;-83
2023/08/01 05:17:24;;;;;;;5.20;3.10;;;20.40;99.90;;;;;;4998323;28;20030;-83
2023/08/01 05:19:50;;;;;;;12.38;2.90;;;20.50;99.90;;;;;;4981824;28;20113;-82
2023/08/01 05:22:15;;;;;;;4.68;2.83;;;20.50;99.60;;;;;;4997223;28;20050;-82
2023/08/01 05:24:41;;;;;;;3.05;2.10;;;20.60;99.60;;;;;;4996218;28;20034;-79
2023/08/01 05:27:07;;;;;;;3.78;2.15;;;20.60;99.20;;;;;;5002407;28;20041;-84
2023/08/01 05:29:32;;;;;;;3.75;2.38;;;20.70;99.00;;;;;;4999223;28;20058;-85
2023/08/01 05:31:58;;;;;;;6.25;2.53;;;20.60;98.80;;;;;;5017336;28;20018;-84
2023/08/01 05:34:23;;;;;;;3.05;1.63;;;20.60;99.00;;;;;;4997648;28;20042;-84
2023/08/01 05:36:50;;;;;;;7.43;2.58;;;20.50;98.80;;;;;;5024021;28;20018;-84
2023/08/01 05:39:16;;;;;;;3.53;1.92;;;20.50;98.40;;;;;;5017651;28;20030;-84
2023/08/01 05:41:42;;;;;;;3.17;1.77;;;20.50;98.60;;;;;;4981328;28;20341;-85
2023/08/01 05:44:08;;;;;;;4.13;1.95;;;20.50;98.00;;;;;;4993863;28;20655;-85
2023/08/01 05:46:33;;;;;;;7.47;1.90;;;20.50;97.70;;;;;;4998283;28;20502;-84
2023/08/01 05:48:59;;;;;;;2.65;1.63;;;20.50;97.80;;;;;;4968813;28;20034;-84
2023/08/01 05:51:25;;;;;;;2.92;1.70;;;20.50;97.50;;;;;;4997202;28;20430;-84
2023/08/01 05:53:50;;;;;;;3.88;1.90;;;20.50;97.50;;;;;;4979379;28;20037;-84
2023/08/01 05:56:16;;;;;;;4.55;2.00;;;20.50;97.50;;;;;;4977504;28;20026;-84
2023/08/01 05:58:41;;;;;;;2.92;1.52;;;20.50;97.50;;;;;;5000479;28;20033;-84
2023/08/01 06:01:09;;;;;;;3.45;2.15;;;20.60;97.80;;;;;;4997748;28;20030;-84
2023/08/01 06:03:34;;;;;;;3.33;1.60;;;20.60;97.90;;;;;;4994412;28;20026;-84
2023/08/01 06:06:00;;;;;;;3.80;2.10;;;20.60;97.70;;;;;;4992310;28;20061;-84
2023/08/01 06:08:25;;;;;;;6.05;2.58;;;20.60;97.90;;;;;;4979540;28;20169;-84
2023/08/01 06:10:51;;;;;;;5.97;2.70;;;20.60;97.80;;;;;;4980686;28;20026;-84
2023/08/01 06:13:17;;;;;;;3.10;2.15;;;20.60;98.00;;;;;;4994413;28;20022;-84
2023/08/01 06:15:42;;;;;;;4.20;2.65;;;20.60;98.30;;;;;;4985893;28;20037;-84
2023/08/01 06:18:08;;;;;;;9.27;3.65;;;20.50;98.30;;;;;;4992188;28;20038;-84
2023/08/01 06:20:34;;;;;;;4.75;3.28;;;20.50;98.60;;;;;;4983611;28;20035;-85
2023/08/01 06:22:59;;;;;;;8.57;3.13;;;20.50;98.80;;;;;;5004147;28;20049;-83
2023/08/01 06:25:25;;;;;;;4.78;2.75;;;20.50;99.00;;;;;;4983081;28;20418;-84
2023/08/01 06:27:51;;;;;;;6.93;3.53;;;20.40;99.10;;;;;;4978413;28;20203;-84
2023/08/01 06:30:17;;;;;;;5.43;3.35;;;20.40;99.40;;;;;;4999304;28;20030;-84
2023/08/01 06:32:42;;;;;;;6.05;3.05;;;20.40;99.60;;;;;;4994282;28;20448;-85
2023/08/01 06:35:08;;;;;;;7.35;4.13;;;20.40;99.70;;;;;;4996038;28;20018;-84
2023/08/01 06:37:33;;;;;;;6.70;4.10;;;20.30;99.90;;;;;;4982637;28;20033;-84
2023/08/01 06:39:59;;;;;;;7.40;3.83;;;20.30;99.80;;;;;;4979979;28;20049;-84
2023/08/01 06:42:25;;;;;;;6.78;3.42;;;20.30;99.60;;;;;;4993821;28;20494;-84
2023/08/01 06:44:50;;;;;;;6.22;3.20;;;20.30;99.60;;;;;;4979792;28;20035;-84
2023/08/01 06:47:16;;;;;;;6.53;3.10;;;20.30;99.60;;;;;;4982936;28;20062;-84
2023/08/01 06:49:41;;;;;;;7.05;3.17;;;20.30;99.60;;;;;;4993602;28;20033;-84
2023/08/01 06:52:07;;;;;;;8.52;3.47;;;20.20;99.90;;;;;;4993751;28;20029;-84
2023/08/01 06:54:33;;;;;;;8.35;3.55;;;20.20;99.60;;;;;;4981587;28;20475;-84
2023/08/01 06:56:59;;;;;;;6.30;3.40;;;20.20;99.70;;;;;;4980427;28;20019;-85
2023/08/01 06:59:25;;;;;;;9.52;3.97;;;20.20;99.90;;;;;;4978010;28;20395;-84
2023/08/01 07:01:51;;;;;;;5.00;3.03;;;20.20;99.80;;;;;;4981024;28;20033;-84
2023/08/01 07:04:17;;;;;;;8.00;3.20;;;20.20;99.80;;;;;;4976789;28;20023;-85
2023/08/01 07:06:43;;;;;;;7.43;3.40;;;20.20;99.60;;;;;;4977364;28;20142;-85
2023/08/01 07:09:10;;;;;;;4.70;3.08;;;20.20;99.80;;;;;;4989468;28;20052;-84
2023/08/01 07:11:36;;;;;;;7.32;3.28;;;20.20;99.80;;;;;;4989942;28;20054;-85
2023/08/01 07:14:02;;;;;;;6.97;3.20;;;20.20;99.90;;;;;;4974108;28;20538;-85
2023/08/01 07:16:27;;;;;;;7.40;3.53;;;20.20;99.90;;;;;;4986698;28;20023;-86
2023/08/01 07:18:55;;;;;;;6.38;3.33;;;20.20;99.90;;;;;;4987128;28;20057;-86
2023/08/01 07:21:21;;;;;;;6.72;3.60;;;20.20;99.90;;;;;;4985875;28;20392;-86
2023/08/01 07:23:48;;;;;;;8.70;3.20;;;20.20;99.90;;;;;;4976205;28;20030;-86
2023/08/01 07:26:14;;;;;;;5.22;3.20;;;20.20;99.90;;;;;;4972666;28;20431;-85
2023/08/01 07:28:39;;;;;;;5.43;3.38;;;20.20;99.90;;;;;;4974423;28;20062;-86
2023/08/01 07:31:07;;;;;;;5.63;2.95;;;20.20;99.90;;;;;;4974203;28;20022;-85
2023/08/01 07:33:33;;;;;;;6.35;3.55;;;20.30;99.90;;;;;;4971245;28;20073;-85
2023/08/01 07:35:59;;;;;;;4.60;2.92;;;20.20;99.90;;;;;;4969674;28;20026;-86
2023/08/01 07:38:26;;;;;;;6.93;3.22;;;20.30;99.90;;;;;;4979397;28;20023;-86
2023/08/01 07:40:52;;;;;;;8.70;4.03;;;20.40;99.90;;;;;;4990621;28;20426;-86
2023/08/01 07:43:18;;;;;;;5.45;3.10;;;20.50;99.90;;;;;;4975543;28;20026;-85
2023/08/01 07:45:44;;;;;;;5.25;2.85;;;20.50;99.90;;;;;;4972429;28;20176;-86
2023/08/01 07:48:10;;;;;;;4.57;2.88;;;20.50;99.90;;;;;;4976534;28;20556;-86
2023/08/01 07:50:36;;;;;;;7.72;3.80;;;20.50;99.90;;;;;;4975851;28;20034;-86
2023/08/01 07:53:01;;;;;;;5.65;3.22;;;20.50;99.90;;;;;;4979041;28;20377;-86
2023/08/01 07:55:27;;;;;;;5.30;2.75;;;20.50;99.90;;;;;;4989785;28;20372;-86
2023/08/01 07:57:52;;;;;;;5.00;2.72;;;20.50;99.90;;;;;;4992290;28;20113;-86
2023/08/01 08:00:18;;;;;;;5.45;3.33;;;20.50;99.90;;;;;;4977101;28;20454;-86
2023/08/01 08:02:45;;;;;;;5.90;2.80;;;20.50;99.90;;;;;;4988619;28;20109;-86
2023/08/01 08:05:12;;;;;;;6.13;3.10;;;20.40;99.90;;;;;;4992041;28;20084;-86
2023/08/01 08:07:39;;;;;;;5.15;2.78;;;20.40;99.90;;;;;;4979393;28;20026;-86
2023/08/01 08:10:05;;;;;;;4.85;2.65;;;20.30;99.90;;;;;;4997899;28;20589;-86
2023/08/01 08:12:32;;;;;;;4.45;2.40;;;20.20;99.90;;;;;;4975234;28;20038;-86
2023/08/01 08:14:57;;;;;;;5.10;2.53;;;20.20;99.90;;;;;;4994618;28;20023;-86
2023/08/01 08:17:23;;;;;;;5.93;2.72;;;20.10;99.90;;;;;;4982933;28;20392;-86
2023/08/01 08:19:49;;;;;;;4.32;2.47;;;20.00;99.90;;;;;;4972731;28;20100;-85
2023/08/01 08:22:14;;;;;;;5.20;2.83;;;19.80;99.90;;;;;;4979114;28;20022;-85
2023/08/01 08:24:40;;;;;;;4.80;2.40;;;19.70;99.90;;;;;;4978101;28;20030;-86
2023/08/01 08:27:05;;;;;;;4.97;2.40;;;19.50;99.90;;;;;;4982007;28;20037;-85
2023/08/01 08:29:32;;;;;;;4.35;2.28;;;19.30;99.90;;;;;;4992629;28;20117;-85
2023/08/01 08:31:57;;;;;;;3.70;2.05;;;19.20;99.90;;;;;;4978112;28;20443;-86
2023/08/01 08:34:23;;;;;;;7.45;2.55;;;19.10;99.90;;;;;;4997880;28;20038;-86
2023/08/01 08:36:53;;;;;;;3.80;2.15;;;19.00;99.90;;;;;;4993593;28;20057;-86
2023/08/01 08:39:20;;;;;;;4.30;2.45;;;18.90;99.90;;;;;;4994309;28;20023;-86
2023/08/01 08:41:48;;;;;;;4.40;2.80;;;18.90;99.90;;;;;;4978426;28;20376;-86
2023/08/01 08:44:19;;;;;;;6.70;2.85;;;18.90;99.90;;;;;;4988875;28;20096;-85
2023/08/01 08:46:47;;;;;;;6.25;2.22;;;18.90;99.90;;;;;;4989468;28;20061;-86
2023/08/01 08:49:15;;;;;;;4.65;2.42;;;18.80;99.90;;;;;;4993859;28;20037;-87
2023/08/01 08:51:43;;;;;;;3.65;2.25;;;18.80;99.90;;;;;;5009273;28;20042;-87
2023/08/01 08:54:10;;;;;;;5.50;2.30;;;18.80;99.90;;;;;;4989876;28;20042;-86
2023/08/01 08:56:38;;;;;;;2.85;1.60;;;18.80;99.90;;;;;;4997713;28;20061;-86
2023/08/01 08:59:04;;;;;;;3.35;1.92;;;18.70;99.90;;;;;;4994960;28;20131;-86
2023/08/01 09:01:32;;;;;;;3.10;1.38;;;18.70;99.90;;;;;;4996572;28;20030;-87
2023/08/01 09:03:58;;;;;;;2.15;1.30;;;18.70;99.90;;;;;;4992511;28;20027;-86
2023/08/01 09:06:28;;;;;;;2.30;1.20;;;18.70;99.90;;;;;;4994323;28;20041;-86
2023/08/01 09:09:04;;;;;;;4.28;1.40;;;18.60;99.90;;;;;;4994914;28;20038;-87
2023/08/01 09:11:40;;;;;;;2.17;1.42;;;18.60;99.90;;;;;;4998447;28;20024;-86
2023/08/01 09:14:05;;;;;;;1.40;0.80;;;18.50;99.90;;;;;;4997214;28;20022;-87
2023/08/01 09:16:33;;;;;;;1.65;0.80;;;18.50;99.90;;;;;;5016181;28;20049;-87
2023/08/01 09:18:58;;;;;;;1.27;0.80;;;18.50;99.90;;;;;;4996517;28;20069;-86
2023/08/01 09:21:25;;;;;;;1.17;0.82;;;18.50;99.90;;;;;;5019371;28;20030;-86
2023/08/01 09:23:51;;;;;;;2.25;1.02;;;18.50;99.90;;;;;;5014458;28;20014;-86
2023/08/01 09:26:19;;;;;;;1.55;1.05;;;18.60;99.90;;;;;;5001494;28;20023;-86
2023/08/01 09:28:56;;;;;;;1.55;0.90;;;18.60;99.90;;;;;;5005680;28;20094;-86
2023/08/01 09:31:34;;;;;;;1.38;0.90;;;18.60;99.90;;;;;;4994346;28;20030;-86
2023/08/01 09:34:00;;;;;;;1.55;0.82;;;18.80;99.90;;;;;;5000359;28;20634;-87
2023/08/01 09:36:26;;;;;;;1.35;0.80;;;18.90;99.90;;;;;;4998420;28;20050;-87
2023/08/01 09:38:57;;;;;;;1.20;1.00;;;19.00;99.90;;;;;;4988852;28;20023;-87
2023/08/01 09:41:23;;;;;;;1.92;0.63;;;19.10;99.90;;;;;;4994688;28;20435;-86
2023/08/01 09:43:49;;;;;;;2.10;1.00;;;19.20;99.90;;;;;;4988210;28;20068;-87
2023/08/01 09:46:15;;;;;;;1.13;0.80;;;19.30;99.90;;;;;;4999788;28;20027;-87
2023/08/01 09:48:43;;;;;;;2.50;0.60;;;19.30;99.90;;;;;;4999682;28;20133;-86
2023/08/01 09:51:10;;;;;;;1.40;0.60;;;19.40;99.90;;;;;;4983704;28;20025;-86
2023/08/01 09:53:48;;;;;;;1.73;0.80;;;19.40;99.90;;;;;;4994462;28;20480;-86
2023/08/01 09:56:17;;;;;;;3.00;0.80;;;19.50;99.90;;;;;;4983724;28;20072;-87
2023/08/01 09:58:44;;;;;;;1.23;0.90;;;19.50;99.90;;;;;;4982248;28;20026;-86
2023/08/01 10:01:10;;;;;;;1.48;0.70;;;19.60;99.90;;;;;;4998270;28;20128;-87
2023/08/01 10:03:36;;;;;;;1.10;0.50;;;19.60;99.90;;;;;;4982388;28;20038;-86
2023/08/01 10:06:02;;;;;;;1.77;0.55;;;19.60;99.90;;;;;;4983710;28;20037;-86
2023/08/01 10:08:32;;;;;;;0.80;0.60;;;19.60;99.90;;;;;;4980684;28;20077;-86
2023/08/01 10:10:57;;;;;;;2.65;0.60;;;19.60;99.90;;;;;;4978334;28;20114;-86
2023/08/01 10:13:24;;;;;;;1.63;0.55;;;19.60;99.90;;;;;;4993633;28;20100;-86
2023/08/01 10:15:50;;;;;;;3.55;0.65;;;19.60;99.90;;;;;;4983719;28;20389;-86
2023/08/01 10:18:17;;;;;;;0.90;0.60;;;19.50;99.90;;;;;;4998896;28;20033;-86
2023/08/01 10:20:44;;;;;;;2.53;1.05;;;19.40;99.90;;;;;;4996296;28;20422;-86
2023/08/01 10:23:11;;;;;;;3.35;1.00;;;19.30;99.90;;;;;;4973858;28;20046;-86
2023/08/01 10:25:38;;;;;;;3.83;0.82;;;19.20;99.90;;;;;;4994791;28;20042;-86
2023/08/01 10:28:05;;;;;;;1.42;0.80;;;19.10;99.90;;;;;;4971615;28;20084;-86
2023/08/01 10:30:32;;;;;;;4.30;0.88;;;19.00;99.90;;;;;;4974963;28;20353;-86
2023/08/01 10:33:00;;;;;;;2.97;1.20;;;19.00;99.90;;;;;;4990175;28;20478;-86
2023/08/01 10:35:36;;;;;;;4.22;1.20;;;18.80;99.90;;;;;;4978347;28;20042;-87
2023/08/01 10:38:10;;;;;;;1.60;1.17;;;18.80;99.90;;;;;;4981529;28;20422;-86
2023/08/01 10:40:37;;;;;;;1.40;0.88;;;18.80;99.90;;;;;;4993434;28;20035;-88
2023/08/01 10:43:03;;;;;;;1.25;0.70;;;18.80;99.90;;;;;;5000431;28;20014;-88
2023/08/01 10:45:29;;;;;;;4.75;1.05;;;18.70;99.90;;;;;;5017545;28;20010;-87
2023/08/01 10:48:09;;;;;;;1.48;0.98;;;18.80;99.90;;;;;;5023750;28;20030;-87
2023/08/01 10:50:35;;;;;;;2.28;1.02;;;18.90;99.90;;;;;;4992522;28;20045;-87
2023/08/01 10:53:06;;;;;;;0.95;0.57;;;19.00;99.90;;;;;;4985549;28;20483;-87
2023/08/01 10:55:43;;;;;;;1.05;0.80;;;19.10;99.90;;;;;;4999459;28;20026;-87
2023/08/01 10:58:11;;;;;;;2.13;0.80;;;19.20;99.90;;;;;;4988803;28;20031;-87
2023/08/01 11:00:41;;;;;;;2.42;0.80;;;19.20;99.90;;;;;;4977424;28;20049;-86
2023/08/01 11:03:07;;;;;;;1.83;0.80;;;19.30;99.90;;;;;;4982910;28;20118;-87
2023/08/01 11:05:32;;;;;;;1.63;0.82;;;19.50;99.90;;;;;;4998598;28;20294;-86
2023/08/01 11:08:02;;;;;;;2.50;0.88;;;19.60;99.90;;;;;;4995692;28;20034;-86
2023/08/01 11:10:32;;;;;;;1.23;0.85;;;19.70;99.90;;;;;;4979810;28;20090;-86
2023/08/01 11:12:59;;;;;;;1.20;0.60;;;19.80;99.90;;;;;;4978240;28;20034;-86
2023/08/01 11:15:25;;;;;;;2.75;0.90;;;19.90;99.90;;;;;;5000876;28;20067;-86
2023/08/01 11:17:52;;;;;;;1.38;0.70;;;20.00;99.90;;;;;;4979446;28;20030;-86
2023/08/01 11:20:21;;;;;;;2.45;1.02;;;20.20;99.90;;;;;;4979581;28;20041;-86
2023/08/01 11:22:54;;;;;;;1.45;0.90;;;20.30;99.90;;;;;;4998112;28;20085;-85
2023/08/01 11:25:31;;;;;;;2.38;0.98;;;20.50;99.90;;;;;;4997279;28;20129;-86
2023/08/01 11:27:57;;;;;;;1.50;0.73;;;20.60;99.90;;;;;;4979377;28;20045;-86
2023/08/01 11:30:32;;;;;;;1.20;0.70;;;20.70;99.90;;;;;;4984477;28;20023;-86
2023/08/01 11:32:58;;;;;;;1.25;0.90;;;20.70;99.90;;;;;;4979815;28;20029;-86
2023/08/01 11:35:24;;;;;;;0.90;0.63;;;20.90;99.90;;;;;;4983015;28;20109;-85
2023/08/01 11:37:51;;;;;;;3.05;1.23;;;21.00;99.90;;;;;;4980862;28;20677;-85
2023/08/01 11:40:17;;;;;;;1.73;1.08;;;21.20;99.90;;;;;;4988612;28;20022;-85
2023/08/01 11:42:43;;;;;;;1.58;0.80;;;21.30;99.90;;;;;;4979148;28;20033;-85
2023/08/01 11:45:12;;;;;;;1.70;0.82;;;21.30;99.90;;;;;;4982465;28;20030;-86
2023/08/01 11:47:45;;;;;;;2.10;0.70;;;21.40;99.90;;;;;;4981671;28;20022;-85
2023/08/01 11:50:10;;;;;;;1.27;0.80;;;21.40;99.90;;;;;;5000592;28;20150;-85
2023/08/01 11:52:36;;;;;;;2.50;0.82;;;21.50;99.90;;;;;;4998116;28;20506;-85
2023/08/01 11:55:02;;;;;;;1.40;0.82;;;21.60;99.90;;;;;;4989489;28;20050;-86
2023/08/01 11:57:28;;;;;;;2.28;0.70;;;21.70;99.90;;;;;;4983915;28;20058;-86
2023/08/01 11:59:55;;;;;;;2.78;0.98;;;21.70;99.90;;;;;;4994795;28;20102;-85
2023/08/01 12:02:25;;;;;;;2.60;0.90;;;21.80;99.90;;;;;;4979115;28;20058;-86
2023/08/01 12:04:52;;;;;;;1.10;0.80;;;21.80;99.90;;;;;;4978941;28;20529;-85
2023/08/01 12:07:18;;;;;;;1.13;0.75;;;21.90;99.90;;;;;;5002524;28;20022;-85
2023/08/01 12:09:54;;;;;;;2.17;1.00;;;21.90;99.90;;;;;;4979636;28;21836;-86
2023/08/01 12:12:20;;;;;;;2.45;1.13;;;22.00;99.90;;;;;;4983528;28;20448;-85
2023/08/01 12:14:46;;;;;;;2.33;0.75;;;22.10;99.90;;;;;;4977862;28;20165;-85
2023/08/01 12:17:12;;;;;;;3.00;0.93;;;22.10;99.90;;;;;;4998982;28;20038;-84
2023/08/01 12:19:37;;;;;;;1.25;0.80;;;22.00;99.90;;;;;;5000044;28;20536;-85
2023/08/01 12:22:03;;;;;;;4.32;1.20;;;22.10;99.90;;;;;;4999989;28;20035;-85
2023/08/01 12:24:29;;;;;;;2.13;1.00;;;22.00;99.90;;;;;;4984901;28;20021;-85
2023/08/01 12:26:54;;;;;;;3.10;0.85;;;21.90;99.90;;;;;;4980944;28;20116;-85
2023/08/01 12:29:20;;;;;;;4.72;1.27;;;21.90;99.90;;;;;;4981203;28;20027;-85
2023/08/01 12:31:46;;;;;;;3.80;1.00;;;21.90;99.90;;;;;;5001048;28;20033;-85
2023/08/01 12:34:11;;;;;;;4.22;1.20;;;21.90;99.90;;;;;;4981384;28;20026;-86
2023/08/01 12:36:37;;;;;;;1.20;0.73;;;21.90;99.90;;;;;;4983532;28;20148;-87
2023/08/01 12:39:03;;;;;;;5.13;0.98;;;21.80;99.90;;;;;;4995412;28;20034;-86
2023/08/01 12:41:29;;;;;;;2.85;1.00;;;21.80;99.90;;;;;;4999349;28;20030;-86
2023/08/01 12:43:54;;;;;;;2.08;0.88;;;21.80;99.90;;;;;;4975347;28;20051;-87